sensor_id;sensor_type;location;lat;lon;timestamp;temperature;humidity
3850;DHT22;1940;51.052;13.678;2023-07-13T00:01:04;22.70;63.20
3850;DHT22;1940;51.052;13.678;2023-07-13T00:03:31;22.80;62.60
3850;DHT22;1940;51.052;13.678;2023-07-13T00:06:00;22.80;62.70
3850;DHT22;1940;51.052;13.678;2023-07-13T00:08:29;22.80;62.70
3850;DHT22;1940;51.052;13.678;2023-07-13T00:10:55;22.80;63.20
3850;DHT22;1940;51.052;13.678;2023-07-13T00:13:20;22.70;63.50
3850;DHT22;1940;51.052;13.678;2023-07-13T00:15:46;22.70;62.90
3850;DHT22;1940;51.052;13.678;2023-07-13T00:18:11;22.70;63.30
3850;DHT22;1940;51.052;13.678;2023-07-13T00:20:37;22.70;63.20
3850;DHT22;1940;51.052;13.678;2023-07-13T00:23:02;22.70;63.30
3850;DHT22;1940;51.052;13.678;2023-07-13T00:25:28;22.70;63.10
3850;DHT22;1940;51.052;13.678;2023-07-13T00:27:54;22.70;63.30
3850;DHT22;1940;51.052;13.678;2023-07-13T00:30:20;22.60;63.30
3850;DHT22;1940;51.052;13.678;2023-07-13T00:32:45;22.60;63.10
3850;DHT22;1940;51.052;13.678;2023-07-13T00:35:13;22.70;63.60
3850;DHT22;1940;51.052;13.678;2023-07-13T00:37:39;22.70;63.60
3850;DHT22;1940;51.052;13.678;2023-07-13T00:40:05;22.70;63.50
3850;DHT22;1940;51.052;13.678;2023-07-13T00:42:31;22.60;65.40
3850;DHT22;1940;51.052;13.678;2023-07-13T00:47:41;22.00;71.10
3850;DHT22;1940;51.052;13.678;2023-07-13T00:50:10;21.60;73.00
3850;DHT22;1940;51.052;13.678;2023-07-13T00:52:41;21.40;73.50
3850;DHT22;1940;51.052;13.678;2023-07-13T00:55:07;21.30;74.70
3850;DHT22;1940;51.052;13.678;2023-07-13T00:57:34;21.10;75.70
3850;DHT22;1940;51.052;13.678;2023-07-13T01:00:03;20.90;77.20
3850;DHT22;1940;51.052;13.678;2023-07-13T01:02:37;20.80;78.00
3850;DHT22;1940;51.052;13.678;2023-07-13T01:05:09;20.80;78.80
3850;DHT22;1940;51.052;13.678;2023-07-13T01:07:35;20.70;79.80
3850;DHT22;1940;51.052;13.678;2023-07-13T01:10:02;20.70;78.80
3850;DHT22;1940;51.052;13.678;2023-07-13T01:12:28;20.70;79.60
3850;DHT22;1940;51.052;13.678;2023-07-13T01:14:58;20.80;79.50
3850;DHT22;1940;51.052;13.678;2023-07-13T01:17:26;20.80;78.40
3850;DHT22;1940;51.052;13.678;2023-07-13T01:19:52;20.60;78.80
3850;DHT22;1940;51.052;13.678;2023-07-13T01:22:19;20.50;78.60
3850;DHT22;1940;51.052;13.678;2023-07-13T01:24:47;20.50;78.60
3850;DHT22;1940;51.052;13.678;2023-07-13T01:27:16;20.40;78.00
3850;DHT22;1940;51.052;13.678;2023-07-13T01:29:45;20.40;78.50
3850;DHT22;1940;51.052;13.678;2023-07-13T01:32:14;20.30;78.80
3850;DHT22;1940;51.052;13.678;2023-07-13T01:34:40;20.30;78.90
3850;DHT22;1940;51.052;13.678;2023-07-13T01:37:10;20.20;78.30
3850;DHT22;1940;51.052;13.678;2023-07-13T01:39:36;20.10;78.80
3850;DHT22;1940;51.052;13.678;2023-07-13T01:42:03;20.10;78.70
3850;DHT22;1940;51.052;13.678;2023-07-13T01:44:28;20.10;78.60
3850;DHT22;1940;51.052;13.678;2023-07-13T01:46:54;20.20;78.20
3850;DHT22;1940;51.052;13.678;2023-07-13T01:49:20;20.30;78.60
3850;DHT22;1940;51.052;13.678;2023-07-13T01:51:45;20.30;79.00
3850;DHT22;1940;51.052;13.678;2023-07-13T01:54:11;20.40;79.40
3850;DHT22;1940;51.052;13.678;2023-07-13T01:56:36;20.40;78.30
3850;DHT22;1940;51.052;13.678;2023-07-13T01:59:02;20.40;78.00
3850;DHT22;1940;51.052;13.678;2023-07-13T02:01:27;20.40;78.50
3850;DHT22;1940;51.052;13.678;2023-07-13T02:03:53;20.40;77.10
3850;DHT22;1940;51.052;13.678;2023-07-13T02:06:18;20.30;77.90
3850;DHT22;1940;51.052;13.678;2023-07-13T02:08:44;20.30;77.50
3850;DHT22;1940;51.052;13.678;2023-07-13T02:11:09;20.40;77.00
3850;DHT22;1940;51.052;13.678;2023-07-13T02:13:35;20.40;77.20
3850;DHT22;1940;51.052;13.678;2023-07-13T02:16:01;20.30;77.90
3850;DHT22;1940;51.052;13.678;2023-07-13T02:18:26;20.20;78.20
3850;DHT22;1940;51.052;13.678;2023-07-13T02:20:52;20.20;79.90
3850;DHT22;1940;51.052;13.678;2023-07-13T02:23:17;20.20;80.30
3850;DHT22;1940;51.052;13.678;2023-07-13T02:25:43;20.10;80.70
3850;DHT22;1940;51.052;13.678;2023-07-13T02:28:09;20.10;79.80
3850;DHT22;1940;51.052;13.678;2023-07-13T02:30:35;20.00;80.40
3850;DHT22;1940;51.052;13.678;2023-07-13T02:33:00;19.90;80.70
3850;DHT22;1940;51.052;13.678;2023-07-13T02:35:26;19.90;79.50
3850;DHT22;1940;51.052;13.678;2023-07-13T02:37:51;19.90;79.00
3850;DHT22;1940;51.052;13.678;2023-07-13T02:40:17;19.90;79.80
3850;DHT22;1940;51.052;13.678;2023-07-13T02:42:42;19.90;80.30
3850;DHT22;1940;51.052;13.678;2023-07-13T02:45:08;19.90;78.60
3850;DHT22;1940;51.052;13.678;2023-07-13T02:47:35;19.90;78.70
3850;DHT22;1940;51.052;13.678;2023-07-13T02:50:00;19.90;78.60
3850;DHT22;1940;51.052;13.678;2023-07-13T02:52:26;19.90;79.00
3850;DHT22;1940;51.052;13.678;2023-07-13T02:54:52;19.90;78.10
3850;DHT22;1940;51.052;13.678;2023-07-13T02:57:17;19.90;78.30
3850;DHT22;1940;51.052;13.678;2023-07-13T02:59:43;19.90;78.80
3850;DHT22;1940;51.052;13.678;2023-07-13T03:02:08;19.80;80.00
3850;DHT22;1940;51.052;13.678;2023-07-13T03:04:36;19.80;80.80
3850;DHT22;1940;51.052;13.678;2023-07-13T03:07:01;19.70;80.10
3850;DHT22;1940;51.052;13.678;2023-07-13T03:09:27;19.70;80.00
3850;DHT22;1940;51.052;13.678;2023-07-13T03:11:55;19.70;80.80
3850;DHT22;1940;51.052;13.678;2023-07-13T03:14:22;19.70;80.40
3850;DHT22;1940;51.052;13.678;2023-07-13T03:16:48;19.70;79.30
3850;DHT22;1940;51.052;13.678;2023-07-13T03:19:13;19.70;79.60
3850;DHT22;1940;51.052;13.678;2023-07-13T03:21:39;19.60;79.40
3850;DHT22;1940;51.052;13.678;2023-07-13T03:24:05;19.60;79.70
3850;DHT22;1940;51.052;13.678;2023-07-13T03:26:30;19.60;79.90
3850;DHT22;1940;51.052;13.678;2023-07-13T03:28:57;19.60;80.80
3850;DHT22;1940;51.052;13.678;2023-07-13T03:31:26;19.50;81.20
3850;DHT22;1940;51.052;13.678;2023-07-13T03:33:53;19.60;81.10
3850;DHT22;1940;51.052;13.678;2023-07-13T03:36:22;19.60;80.20
3850;DHT22;1940;51.052;13.678;2023-07-13T03:38:57;19.60;79.60
3850;DHT22;1940;51.052;13.678;2023-07-13T03:41:24;19.60;79.80
3850;DHT22;1940;51.052;13.678;2023-07-13T03:43:50;19.60;79.90
3850;DHT22;1940;51.052;13.678;2023-07-13T03:46:16;19.60;80.20
3850;DHT22;1940;51.052;13.678;2023-07-13T03:48:46;19.60;80.30
3850;DHT22;1940;51.052;13.678;2023-07-13T03:51:13;19.70;79.60
3850;DHT22;1940;51.052;13.678;2023-07-13T03:53:41;19.70;78.50
3850;DHT22;1940;51.052;13.678;2023-07-13T03:56:08;19.80;78.60
3850;DHT22;1940;51.052;13.678;2023-07-13T03:58:36;19.70;78.70
3850;DHT22;1940;51.052;13.678;2023-07-13T04:01:03;19.80;79.50
3850;DHT22;1940;51.052;13.678;2023-07-13T04:03:29;19.60;79.70
3850;DHT22;1940;51.052;13.678;2023-07-13T04:05:58;19.60;80.10
3850;DHT22;1940;51.052;13.678;2023-07-13T04:08:29;19.40;81.10
3850;DHT22;1940;51.052;13.678;2023-07-13T04:10:55;19.40;81.90
3850;DHT22;1940;51.052;13.678;2023-07-13T04:13:21;19.30;81.90
3850;DHT22;1940;51.052;13.678;2023-07-13T04:15:47;19.30;81.90
3850;DHT22;1940;51.052;13.678;2023-07-13T04:18:12;19.40;81.60
3850;DHT22;1940;51.052;13.678;2023-07-13T04:20:38;19.50;81.90
3850;DHT22;1940;51.052;13.678;2023-07-13T04:23:03;19.70;81.30
3850;DHT22;1940;51.052;13.678;2023-07-13T04:25:29;19.80;80.40
3850;DHT22;1940;51.052;13.678;2023-07-13T04:27:54;19.80;80.10
3850;DHT22;1940;51.052;13.678;2023-07-13T04:30:20;19.70;80.00
3850;DHT22;1940;51.052;13.678;2023-07-13T04:32:46;19.70;80.10
3850;DHT22;1940;51.052;13.678;2023-07-13T04:35:12;19.80;80.20
3850;DHT22;1940;51.052;13.678;2023-07-13T04:37:39;19.70;80.40
3850;DHT22;1940;51.052;13.678;2023-07-13T04:40:05;19.70;80.60
3850;DHT22;1940;51.052;13.678;2023-07-13T04:42:31;19.70;80.70
3850;DHT22;1940;51.052;13.678;2023-07-13T04:44:56;19.60;81.20
3850;DHT22;1940;51.052;13.678;2023-07-13T04:47:22;19.50;81.60
3850;DHT22;1940;51.052;13.678;2023-07-13T04:49:47;19.50;82.00
3850;DHT22;1940;51.052;13.678;2023-07-13T04:52:13;19.60;81.80
3850;DHT22;1940;51.052;13.678;2023-07-13T04:54:39;19.60;81.30
3850;DHT22;1940;51.052;13.678;2023-07-13T04:57:05;19.70;80.90
3850;DHT22;1940;51.052;13.678;2023-07-13T04:59:34;19.90;79.90
3850;DHT22;1940;51.052;13.678;2023-07-13T05:01:59;20.30;79.00
3850;DHT22;1940;51.052;13.678;2023-07-13T05:04:26;20.70;77.40
3850;DHT22;1940;51.052;13.678;2023-07-13T05:06:52;20.70;77.30
3850;DHT22;1940;51.052;13.678;2023-07-13T05:09:17;20.70;76.90
3850;DHT22;1940;51.052;13.678;2023-07-13T05:11:43;20.80;76.60
3850;DHT22;1940;51.052;13.678;2023-07-13T05:14:09;20.70;76.00
3850;DHT22;1940;51.052;13.678;2023-07-13T05:16:35;20.80;76.50
3850;DHT22;1940;51.052;13.678;2023-07-13T05:19:01;20.80;77.00
3850;DHT22;1940;51.052;13.678;2023-07-13T05:21:26;21.00;76.40
3850;DHT22;1940;51.052;13.678;2023-07-13T05:23:52;21.20;75.80
3850;DHT22;1940;51.052;13.678;2023-07-13T05:26:17;21.20;75.90
3850;DHT22;1940;51.052;13.678;2023-07-13T05:28:44;21.40;75.00
3850;DHT22;1940;51.052;13.678;2023-07-13T05:31:10;21.40;74.80
3850;DHT22;1940;51.052;13.678;2023-07-13T05:33:36;21.40;75.70
3850;DHT22;1940;51.052;13.678;2023-07-13T05:36:02;21.60;74.90
3850;DHT22;1940;51.052;13.678;2023-07-13T05:38:28;22.20;74.00
3850;DHT22;1940;51.052;13.678;2023-07-13T05:40:55;22.80;72.00
3850;DHT22;1940;51.052;13.678;2023-07-13T05:43:21;23.20;70.00
3850;DHT22;1940;51.052;13.678;2023-07-13T05:45:47;23.60;69.20
3850;DHT22;1940;51.052;13.678;2023-07-13T05:48:13;24.20;67.40
3850;DHT22;1940;51.052;13.678;2023-07-13T05:50:38;24.80;66.10
3850;DHT22;1940;51.052;13.678;2023-07-13T05:53:04;25.30;64.80
3850;DHT22;1940;51.052;13.678;2023-07-13T05:55:30;25.70;63.70
3850;DHT22;1940;51.052;13.678;2023-07-13T05:57:56;26.00;63.50
3850;DHT22;1940;51.052;13.678;2023-07-13T06:00:24;26.70;62.10
3850;DHT22;1940;51.052;13.678;2023-07-13T06:02:50;27.40;61.00
3850;DHT22;1940;51.052;13.678;2023-07-13T06:05:15;27.70;60.10
3850;DHT22;1940;51.052;13.678;2023-07-13T06:07:41;28.00;59.10
3850;DHT22;1940;51.052;13.678;2023-07-13T06:10:07;28.50;58.60
3850;DHT22;1940;51.052;13.678;2023-07-13T06:12:33;28.70;58.20
3850;DHT22;1940;51.052;13.678;2023-07-13T06:14:58;28.80;58.20
3850;DHT22;1940;51.052;13.678;2023-07-13T06:17:23;29.10;57.90
3850;DHT22;1940;51.052;13.678;2023-07-13T06:19:49;29.40;56.70
3850;DHT22;1940;51.052;13.678;2023-07-13T06:22:14;28.00;59.40
3850;DHT22;1940;51.052;13.678;2023-07-13T06:24:40;27.70;59.80
3850;DHT22;1940;51.052;13.678;2023-07-13T06:27:05;27.20;61.20
3850;DHT22;1940;51.052;13.678;2023-07-13T06:29:31;26.90;61.10
3850;DHT22;1940;51.052;13.678;2023-07-13T06:31:57;26.60;62.10
3850;DHT22;1940;51.052;13.678;2023-07-13T06:34:22;26.30;63.50
3850;DHT22;1940;51.052;13.678;2023-07-13T06:36:48;26.50;62.80
3850;DHT22;1940;51.052;13.678;2023-07-13T06:39:14;26.70;62.70
3850;DHT22;1940;51.052;13.678;2023-07-13T06:41:39;26.50;62.30
3850;DHT22;1940;51.052;13.678;2023-07-13T06:44:05;26.70;61.60
3850;DHT22;1940;51.052;13.678;2023-07-13T06:46:31;26.50;62.10
3850;DHT22;1940;51.052;13.678;2023-07-13T06:48:57;26.80;61.50
3850;DHT22;1940;51.052;13.678;2023-07-13T06:51:22;27.30;59.10
3850;DHT22;1940;51.052;13.678;2023-07-13T06:53:48;27.40;58.60
3850;DHT22;1940;51.052;13.678;2023-07-13T06:56:14;27.70;57.40
3850;DHT22;1940;51.052;13.678;2023-07-13T06:58:40;28.10;57.30
3850;DHT22;1940;51.052;13.678;2023-07-13T07:01:05;28.20;57.20
3850;DHT22;1940;51.052;13.678;2023-07-13T07:03:31;29.00;55.40
3850;DHT22;1940;51.052;13.678;2023-07-13T07:06:03;29.60;54.20
3850;DHT22;1940;51.052;13.678;2023-07-13T07:08:31;30.30;52.80
3850;DHT22;1940;51.052;13.678;2023-07-13T07:10:56;30.50;52.00
3850;DHT22;1940;51.052;13.678;2023-07-13T07:13:23;29.50;53.70
3850;DHT22;1940;51.052;13.678;2023-07-13T07:15:50;28.90;54.90
3850;DHT22;1940;51.052;13.678;2023-07-13T07:18:16;28.30;55.30
3850;DHT22;1940;51.052;13.678;2023-07-13T07:20:41;27.40;57.50
3850;DHT22;1940;51.052;13.678;2023-07-13T07:23:07;26.70;58.30
3850;DHT22;1940;51.052;13.678;2023-07-13T07:25:32;26.40;59.00
3850;DHT22;1940;51.052;13.678;2023-07-13T07:28:00;26.00;58.30
3850;DHT22;1940;51.052;13.678;2023-07-13T07:30:25;26.10;58.70
3850;DHT22;1940;51.052;13.678;2023-07-13T07:32:51;26.70;57.10
3850;DHT22;1940;51.052;13.678;2023-07-13T07:35:16;27.20;56.90
3850;DHT22;1940;51.052;13.678;2023-07-13T07:37:42;27.90;55.00
3850;DHT22;1940;51.052;13.678;2023-07-13T07:40:08;28.60;54.20
3850;DHT22;1940;51.052;13.678;2023-07-13T07:42:33;29.40;53.50
3850;DHT22;1940;51.052;13.678;2023-07-13T07:44:59;30.10;52.00
3850;DHT22;1940;51.052;13.678;2023-07-13T07:47:26;29.80;53.00
3850;DHT22;1940;51.052;13.678;2023-07-13T07:49:51;28.80;53.60
3850;DHT22;1940;51.052;13.678;2023-07-13T07:52:17;28.30;55.80
3850;DHT22;1940;51.052;13.678;2023-07-13T07:54:44;28.30;54.90
3850;DHT22;1940;51.052;13.678;2023-07-13T07:57:09;28.70;55.70
3850;DHT22;1940;51.052;13.678;2023-07-13T07:59:36;29.30;53.20
3850;DHT22;1940;51.052;13.678;2023-07-13T08:02:02;29.00;53.10
3850;DHT22;1940;51.052;13.678;2023-07-13T08:04:28;28.90;54.00
3850;DHT22;1940;51.052;13.678;2023-07-13T08:06:53;29.20;54.30
3850;DHT22;1940;51.052;13.678;2023-07-13T08:09:21;29.00;54.60
3850;DHT22;1940;51.052;13.678;2023-07-13T08:11:47;29.00;54.70
3850;DHT22;1940;51.052;13.678;2023-07-13T08:14:12;29.30;51.90
3850;DHT22;1940;51.052;13.678;2023-07-13T08:16:38;29.80;52.20
3850;DHT22;1940;51.052;13.678;2023-07-13T08:19:03;30.70;48.60
3850;DHT22;1940;51.052;13.678;2023-07-13T08:21:29;30.50;49.70
3850;DHT22;1940;51.052;13.678;2023-07-13T08:23:55;31.20;49.40
3850;DHT22;1940;51.052;13.678;2023-07-13T08:26:21;31.50;49.70
3850;DHT22;1940;51.052;13.678;2023-07-13T08:28:47;31.70;49.50
3850;DHT22;1940;51.052;13.678;2023-07-13T08:31:13;31.20;50.30
3850;DHT22;1940;51.052;13.678;2023-07-13T08:33:39;30.50;51.40
3850;DHT22;1940;51.052;13.678;2023-07-13T08:36:06;30.80;51.30
3850;DHT22;1940;51.052;13.678;2023-07-13T08:38:32;31.60;50.20
3850;DHT22;1940;51.052;13.678;2023-07-13T08:40:58;32.30;49.70
3850;DHT22;1940;51.052;13.678;2023-07-13T08:43:28;31.80;48.80
3850;DHT22;1940;51.052;13.678;2023-07-13T08:48:47;30.30;49.50
3850;DHT22;1940;51.052;13.678;2023-07-13T08:51:54;29.80;50.90
3850;DHT22;1940;51.052;13.678;2023-07-13T08:54:30;29.10;51.50
3850;DHT22;1940;51.052;13.678;2023-07-13T08:56:58;29.20;52.50
3850;DHT22;1940;51.052;13.678;2023-07-13T08:59:27;29.00;51.80
3850;DHT22;1940;51.052;13.678;2023-07-13T09:02:09;28.60;52.80
3850;DHT22;1940;51.052;13.678;2023-07-13T09:10:14;27.60;54.80
3850;DHT22;1940;51.052;13.678;2023-07-13T09:15:39;29.00;53.80
3850;DHT22;1940;51.052;13.678;2023-07-13T09:18:32;29.90;51.30
3850;DHT22;1940;51.052;13.678;2023-07-13T09:21:02;30.60;49.10
3850;DHT22;1940;51.052;13.678;2023-07-13T09:23:30;30.80;49.20
3850;DHT22;1940;51.052;13.678;2023-07-13T09:26:25;31.40;48.10
3850;DHT22;1940;51.052;13.678;2023-07-13T09:29:06;31.20;47.00
3850;DHT22;1940;51.052;13.678;2023-07-13T09:31:41;30.70;47.80
3850;DHT22;1940;51.052;13.678;2023-07-13T09:34:12;30.40;49.20
3850;DHT22;1940;51.052;13.678;2023-07-13T09:36:38;30.60;49.20
3850;DHT22;1940;51.052;13.678;2023-07-13T09:39:12;30.90;49.10
3850;DHT22;1940;51.052;13.678;2023-07-13T09:47:24;31.90;46.80
3850;DHT22;1940;51.052;13.678;2023-07-13T09:49:59;32.10;46.60
3850;DHT22;1940;51.052;13.678;2023-07-13T09:52:26;31.50;46.60
3850;DHT22;1940;51.052;13.678;2023-07-13T09:54:53;31.00;47.10
3850;DHT22;1940;51.052;13.678;2023-07-13T09:57:25;31.00;48.30
3850;DHT22;1940;51.052;13.678;2023-07-13T09:59:53;32.00;47.00
3850;DHT22;1940;51.052;13.678;2023-07-13T10:02:34;32.70;46.10
3850;DHT22;1940;51.052;13.678;2023-07-13T10:05:04;32.50;46.10
3850;DHT22;1940;51.052;13.678;2023-07-13T10:07:31;32.60;45.70
3850;DHT22;1940;51.052;13.678;2023-07-13T10:09:59;32.30;46.30
3850;DHT22;1940;51.052;13.678;2023-07-13T10:12:26;31.10;47.80
3850;DHT22;1940;51.052;13.678;2023-07-13T10:14:56;30.90;47.60
3850;DHT22;1940;51.052;13.678;2023-07-13T10:17:32;30.60;48.30
3850;DHT22;1940;51.052;13.678;2023-07-13T10:20:05;30.10;50.00
3850;DHT22;1940;51.052;13.678;2023-07-13T10:22:58;30.20;50.10
3850;DHT22;1940;51.052;13.678;2023-07-13T10:25:27;29.90;50.40
3850;DHT22;1940;51.052;13.678;2023-07-13T10:27:58;29.20;51.90
3850;DHT22;1940;51.052;13.678;2023-07-13T10:30:30;29.80;51.40
3850;DHT22;1940;51.052;13.678;2023-07-13T10:33:02;29.80;49.00
3850;DHT22;1940;51.052;13.678;2023-07-13T10:35:30;29.60;48.90
3850;DHT22;1940;51.052;13.678;2023-07-13T10:38:10;29.90;48.40
3850;DHT22;1940;51.052;13.678;2023-07-13T10:40:43;30.30;47.90
3850;DHT22;1940;51.052;13.678;2023-07-13T10:43:14;30.90;47.90
3850;DHT22;1940;51.052;13.678;2023-07-13T10:45:43;31.90;45.80
3850;DHT22;1940;51.052;13.678;2023-07-13T10:48:12;31.90;45.70
3850;DHT22;1940;51.052;13.678;2023-07-13T10:50:40;32.00;46.20
3850;DHT22;1940;51.052;13.678;2023-07-13T10:53:29;31.90;43.40
3850;DHT22;1940;51.052;13.678;2023-07-13T10:56:05;32.60;43.90
3850;DHT22;1940;51.052;13.678;2023-07-13T10:58:41;33.10;42.60
3850;DHT22;1940;51.052;13.678;2023-07-13T11:01:17;32.20;43.10
3850;DHT22;1940;51.052;13.678;2023-07-13T11:04:00;31.90;43.50
3850;DHT22;1940;51.052;13.678;2023-07-13T11:06:40;32.20;44.40
3850;DHT22;1940;51.052;13.678;2023-07-13T11:11:48;32.90;43.50
3850;DHT22;1940;51.052;13.678;2023-07-13T11:14:37;32.90;44.50
3850;DHT22;1940;51.052;13.678;2023-07-13T11:22:47;31.80;45.40
3850;DHT22;1940;51.052;13.678;2023-07-13T11:25:29;30.40;47.00
3850;DHT22;1940;51.052;13.678;2023-07-13T11:36:15;30.00;50.30
3850;DHT22;1940;51.052;13.678;2023-07-13T11:38:43;29.90;48.60
3850;DHT22;1940;51.052;13.678;2023-07-13T11:41:37;29.10;49.60
3850;DHT22;1940;51.052;13.678;2023-07-13T11:44:16;28.70;51.60
3850;DHT22;1940;51.052;13.678;2023-07-13T11:46:50;28.50;51.10
3850;DHT22;1940;51.052;13.678;2023-07-13T11:49:25;28.30;51.00
3850;DHT22;1940;51.052;13.678;2023-07-13T11:51:52;28.10;51.20
3850;DHT22;1940;51.052;13.678;2023-07-13T11:54:48;27.90;52.00
3850;DHT22;1940;51.052;13.678;2023-07-13T11:57:32;28.20;52.30
3850;DHT22;1940;51.052;13.678;2023-07-13T12:00:02;28.40;51.20
3850;DHT22;1940;51.052;13.678;2023-07-13T12:02:39;28.60;53.10
3850;DHT22;1940;51.052;13.678;2023-07-13T12:05:09;28.80;51.60
3850;DHT22;1940;51.052;13.678;2023-07-13T12:07:35;29.00;50.40
3850;DHT22;1940;51.052;13.678;2023-07-13T12:10:22;29.10;51.00
3850;DHT22;1940;51.052;13.678;2023-07-13T12:13:09;28.90;50.80
3850;DHT22;1940;51.052;13.678;2023-07-13T12:15:44;29.00;49.00
3850;DHT22;1940;51.052;13.678;2023-07-13T12:18:22;28.90;49.70
3850;DHT22;1940;51.052;13.678;2023-07-13T12:20:50;28.90;50.90
3850;DHT22;1940;51.052;13.678;2023-07-13T12:23:24;29.00;50.40
3850;DHT22;1940;51.052;13.678;2023-07-13T12:25:51;28.90;50.00
3850;DHT22;1940;51.052;13.678;2023-07-13T12:31:30;28.80;50.40
3850;DHT22;1940;51.052;13.678;2023-07-13T12:36:29;28.90;50.00
3850;DHT22;1940;51.052;13.678;2023-07-13T12:41:42;29.00;49.60
3850;DHT22;1940;51.052;13.678;2023-07-13T12:44:19;29.20;48.30
3850;DHT22;1940;51.052;13.678;2023-07-13T12:47:06;29.00;49.50
3850;DHT22;1940;51.052;13.678;2023-07-13T12:49:41;29.20;48.40
3850;DHT22;1940;51.052;13.678;2023-07-13T12:52:14;29.30;47.00
3850;DHT22;1940;51.052;13.678;2023-07-13T12:54:40;29.30;47.00
3850;DHT22;1940;51.052;13.678;2023-07-13T12:57:14;29.30;47.10
3850;DHT22;1940;51.052;13.678;2023-07-13T12:59:41;29.20;48.10
3850;DHT22;1940;51.052;13.678;2023-07-13T13:02:31;29.00;47.70
3850;DHT22;1940;51.052;13.678;2023-07-13T13:04:58;28.80;48.50
3850;DHT22;1940;51.052;13.678;2023-07-13T13:07:25;29.00;48.10
3850;DHT22;1940;51.052;13.678;2023-07-13T13:09:51;29.20;47.50
3850;DHT22;1940;51.052;13.678;2023-07-13T13:12:19;29.40;48.30
3850;DHT22;1940;51.052;13.678;2023-07-13T13:14:45;29.30;48.20
3850;DHT22;1940;51.052;13.678;2023-07-13T13:17:19;29.20;47.70
3850;DHT22;1940;51.052;13.678;2023-07-13T13:19:46;29.20;47.50
3850;DHT22;1940;51.052;13.678;2023-07-13T13:22:12;29.20;48.10
3850;DHT22;1940;51.052;13.678;2023-07-13T13:24:39;29.20;48.30
3850;DHT22;1940;51.052;13.678;2023-07-13T13:27:04;29.10;47.00
3850;DHT22;1940;51.052;13.678;2023-07-13T13:29:31;29.00;47.50
3850;DHT22;1940;51.052;13.678;2023-07-13T13:31:58;29.20;48.20
3850;DHT22;1940;51.052;13.678;2023-07-13T13:34:25;29.10;47.50
3850;DHT22;1940;51.052;13.678;2023-07-13T13:36:52;29.20;47.30
3850;DHT22;1940;51.052;13.678;2023-07-13T13:39:24;29.30;47.60
3850;DHT22;1940;51.052;13.678;2023-07-13T13:41:51;29.10;46.90
3850;DHT22;1940;51.052;13.678;2023-07-13T13:44:19;29.20;47.30
3850;DHT22;1940;51.052;13.678;2023-07-13T13:46:48;29.30;47.00
3850;DHT22;1940;51.052;13.678;2023-07-13T13:49:18;29.00;48.00
3850;DHT22;1940;51.052;13.678;2023-07-13T13:51:44;28.80;48.20
3850;DHT22;1940;51.052;13.678;2023-07-13T13:54:14;28.60;48.40
3850;DHT22;1940;51.052;13.678;2023-07-13T13:56:46;28.60;49.20
3850;DHT22;1940;51.052;13.678;2023-07-13T13:59:13;28.60;48.40
3850;DHT22;1940;51.052;13.678;2023-07-13T14:01:40;28.70;48.30
3850;DHT22;1940;51.052;13.678;2023-07-13T14:04:06;28.70;47.90
3850;DHT22;1940;51.052;13.678;2023-07-13T14:06:32;28.70;48.40
3850;DHT22;1940;51.052;13.678;2023-07-13T14:08:59;28.50;48.20
3850;DHT22;1940;51.052;13.678;2023-07-13T14:11:25;28.50;48.80
3850;DHT22;1940;51.052;13.678;2023-07-13T14:13:56;28.40;49.70
3850;DHT22;1940;51.052;13.678;2023-07-13T14:16:28;28.30;48.60
3850;DHT22;1940;51.052;13.678;2023-07-13T14:18:55;28.20;48.60
3850;DHT22;1940;51.052;13.678;2023-07-13T14:21:23;28.10;49.20
3850;DHT22;1940;51.052;13.678;2023-07-13T14:23:49;28.20;49.20
3850;DHT22;1940;51.052;13.678;2023-07-13T14:26:25;28.20;48.70
3850;DHT22;1940;51.052;13.678;2023-07-13T14:28:54;28.10;48.70
3850;DHT22;1940;51.052;13.678;2023-07-13T14:31:21;28.00;48.70
3850;DHT22;1940;51.052;13.678;2023-07-13T14:33:46;28.00;48.80
3850;DHT22;1940;51.052;13.678;2023-07-13T14:36:39;27.60;49.30
3850;DHT22;1940;51.052;13.678;2023-07-13T14:39:25;27.60;50.00
3850;DHT22;1940;51.052;13.678;2023-07-13T14:41:52;27.60;49.80
3850;DHT22;1940;51.052;13.678;2023-07-13T14:44:21;27.60;49.30
3850;DHT22;1940;51.052;13.678;2023-07-13T14:46:48;27.70;50.20
3850;DHT22;1940;51.052;13.678;2023-07-13T14:49:32;27.50;49.90
3850;DHT22;1940;51.052;13.678;2023-07-13T14:52:02;27.60;49.40
3850;DHT22;1940;51.052;13.678;2023-07-13T14:54:29;27.70;49.50
3850;DHT22;1940;51.052;13.678;2023-07-13T14:56:54;27.80;49.30
3850;DHT22;1940;51.052;13.678;2023-07-13T14:59:20;27.80;48.60
3850;DHT22;1940;51.052;13.678;2023-07-13T15:01:47;27.60;49.00
3850;DHT22;1940;51.052;13.678;2023-07-13T15:04:13;27.70;48.80
3850;DHT22;1940;51.052;13.678;2023-07-13T15:07:00;27.80;48.80
3850;DHT22;1940;51.052;13.678;2023-07-13T15:09:28;27.90;48.80
3850;DHT22;1940;51.052;13.678;2023-07-13T15:11:57;27.80;48.10
3850;DHT22;1940;51.052;13.678;2023-07-13T15:14:23;27.80;47.80
3850;DHT22;1940;51.052;13.678;2023-07-13T15:16:53;27.80;48.10
3850;DHT22;1940;51.052;13.678;2023-07-13T15:19:20;28.00;48.20
3850;DHT22;1940;51.052;13.678;2023-07-13T15:21:47;27.90;48.40
3850;DHT22;1940;51.052;13.678;2023-07-13T15:24:14;28.10;47.70
3850;DHT22;1940;51.052;13.678;2023-07-13T15:26:39;28.00;46.90
3850;DHT22;1940;51.052;13.678;2023-07-13T15:29:05;27.70;47.30
3850;DHT22;1940;51.052;13.678;2023-07-13T15:31:32;27.80;48.00
3850;DHT22;1940;51.052;13.678;2023-07-13T15:33:59;27.70;46.50
3850;DHT22;1940;51.052;13.678;2023-07-13T15:36:26;27.70;46.30
3850;DHT22;1940;51.052;13.678;2023-07-13T15:38:53;27.70;46.70
3850;DHT22;1940;51.052;13.678;2023-07-13T15:41:21;27.70;46.80
3850;DHT22;1940;51.052;13.678;2023-07-13T15:43:52;27.70;47.00
3850;DHT22;1940;51.052;13.678;2023-07-13T15:46:20;27.70;46.50
3850;DHT22;1940;51.052;13.678;2023-07-13T15:48:49;27.70;46.60
3850;DHT22;1940;51.052;13.678;2023-07-13T15:51:28;27.60;45.80
3850;DHT22;1940;51.052;13.678;2023-07-13T15:53:56;27.70;45.50
3850;DHT22;1940;51.052;13.678;2023-07-13T15:56:28;27.50;46.30
3850;DHT22;1940;51.052;13.678;2023-07-13T15:58:55;27.60;46.00
3850;DHT22;1940;51.052;13.678;2023-07-13T16:01:22;27.50;46.20
3850;DHT22;1940;51.052;13.678;2023-07-13T16:03:48;27.50;46.00
3850;DHT22;1940;51.052;13.678;2023-07-13T16:06:16;27.40;45.70
3850;DHT22;1940;51.052;13.678;2023-07-13T16:08:44;27.40;46.30
3850;DHT22;1940;51.052;13.678;2023-07-13T16:11:36;27.50;46.80
3850;DHT22;1940;51.052;13.678;2023-07-13T16:14:02;27.40;46.00
3850;DHT22;1940;51.052;13.678;2023-07-13T16:16:30;27.40;45.50
3850;DHT22;1940;51.052;13.678;2023-07-13T16:19:02;27.50;46.20
3850;DHT22;1940;51.052;13.678;2023-07-13T16:21:29;27.40;45.90
3850;DHT22;1940;51.052;13.678;2023-07-13T16:23:57;27.30;45.90
3850;DHT22;1940;51.052;13.678;2023-07-13T16:26:28;27.10;46.10
3850;DHT22;1940;51.052;13.678;2023-07-13T16:28:54;27.00;45.70
3850;DHT22;1940;51.052;13.678;2023-07-13T16:31:27;27.00;46.30
3850;DHT22;1940;51.052;13.678;2023-07-13T16:33:53;26.90;46.30
3850;DHT22;1940;51.052;13.678;2023-07-13T16:36:18;26.70;46.20
3850;DHT22;1940;51.052;13.678;2023-07-13T16:38:44;26.40;46.20